Athina V — 9H8661 — position and weather

sailwx.info

Track history (hours):
 
Tides and Currents Weather Stations Pressure Air Temp Water Temp Dewpoint Dewpoint Depression Visibility Wind Speed Wind Dir Waves Ship Positions

Athina V

Last reported at 2017-Sep-10 11:24 UTC. Time now 2017-Sep-21 19:24 UTC.
Position N 37°56' E 023°39'.
Warning: this ship's position is 11 days out of date.

Length 19 m; draft 3 m.

Type: Sailing vessel. MMSI: 256655000.

Date/timePositionNaut miles runAvg speedWind from/ knotsBaromVisibWave heightAir tempDewpointWater temp
2017-Sep-10 11:24N 37°56' E 023°39'0 0.9
2017-Sep-10 11:01N 37°56' E 023°39'3 6.5
2017-Sep-10 10:31N 37°53' E 023°38'4 7.3
2017-Sep-10 10:00N 37°49' E 023°37'4 7.1
2017-Sep-10 09:31N 37°46' E 023°35'4 7.0
2017-Sep-10 09:00N 37°42' E 023°34'4 7.3
2017-Sep-10 08:30N 37°39' E 023°34'3 7.0
2017-Sep-10 08:01N 37°35' E 023°33'  
2017-Sep-06 13:37N 37°26' E 023°32'2 5.5
2017-Sep-06 13:19N 37°28' E 023°32'2 5.7
2017-Sep-06 13:00N 37°30' E 023°33'3 5.9
2017-Sep-06 12:30N 37°33' E 023°33'3 6.1
2017-Sep-06 12:00N 37°36' E 023°34'3 5.6
2017-Sep-06 11:30N 37°38' E 023°34'3 5.9
2017-Sep-06 11:00N 37°41' E 023°35'2 3.8
2017-Sep-06 10:30N 37°43' E 023°35'2 4.0
2017-Sep-06 10:00N 37°45' E 023°36'2 4.2
2017-Sep-06 09:30N 37°47' E 023°37'3 5.2
2017-Sep-06 09:00N 37°50' E 023°38'3 5.5
2017-Sep-06 08:30N 37°52' E 023°38'2 4.9
2017-Sep-06 08:00N 37°55' E 023°39'2 3.3
2017-Sep-06 07:30N 37°56' E 023°39'  
Track history (hours):
 
Tides and Currents Weather Stations Pressure Air Temp Water Temp Dewpoint Dewpoint Depression Visibility Wind Speed Wind Dir Waves Ship Positions

Athina V

Last reported at 2017-Sep-10 11:24 UTC. Time now 2017-Sep-21 19:24 UTC.
Position N 37°56' E 023°39'.
Warning: this ship's position is 11 days out of date.

Length 19 m; draft 3 m.

Type: Sailing vessel. MMSI: 256655000.

Date/timePositionNaut miles runAvg speedWind from/ knotsBaromVisibWave heightAir tempDewpointWater temp
2017-Sep-10 11:24N 37°56' E 023°39'0 0.9
2017-Sep-10 11:01N 37°56' E 023°39'3 6.5
2017-Sep-10 10:31N 37°53' E 023°38'4 7.3
2017-Sep-10 10:00N 37°49' E 023°37'4 7.1
2017-Sep-10 09:31N 37°46' E 023°35'4 7.0
2017-Sep-10 09:00N 37°42' E 023°34'4 7.3
2017-Sep-10 08:30N 37°39' E 023°34'3 7.0
2017-Sep-10 08:01N 37°35' E 023°33'  
2017-Sep-06 13:37N 37°26' E 023°32'2 5.5
2017-Sep-06 13:19N 37°28' E 023°32'2 5.7
2017-Sep-06 13:00N 37°30' E 023°33'3 5.9
2017-Sep-06 12:30N 37°33' E 023°33'3 6.1
2017-Sep-06 12:00N 37°36' E 023°34'3 5.6
2017-Sep-06 11:30N 37°38' E 023°34'3 5.9
2017-Sep-06 11:00N 37°41' E 023°35'2 3.8
2017-Sep-06 10:30N 37°43' E 023°35'2 4.0
2017-Sep-06 10:00N 37°45' E 023°36'2 4.2
2017-Sep-06 09:30N 37°47' E 023°37'3 5.2
2017-Sep-06 09:00N 37°50' E 023°38'3 5.5
2017-Sep-06 08:30N 37°52' E 023°38'2 4.9
2017-Sep-06 08:00N 37°55' E 023°39'2 3.3
2017-Sep-06 07:30N 37°56' E 023°39'  

Dump ship's entire track history